ULLI/LED METAR and TAF weather

Enter ICAO airport designator
Station Type Date Time Source
ULLI METAR 2018/11/15 06:00 UTC NOAA

ULLI 150600Z 23002MPS 9999 OVC029 05/04 Q1029 R88/290050 NOSIG


Station Type Date Time Source
ULLI Decoded METAR 2018/11/15 06:00 UTC NOAA

St. Peterburg, Russia (ULLI) 59-58N 030-18E 6M
Nov 15, 2018 - 01:00 AM EST / 2018.11.15 0600 UTC
Wind: from the SW (230 degrees) at 4 MPH (4 KT):0
Visibility: greater than 7 mile(s):0
Sky conditions: overcast
Temperature: 41 F (5 C)
Dew Point: 39 F (4 C)
Relative Humidity: 93%
Pressure (altimeter): 30.39 in. Hg (1029 hPa)
ob: ULLI 150600Z 23002MPS 9999 OVC029 05/04 Q1029 R88/290050 NOSIG
cycle: 6

Station Type Date Time Source
ULLI TAF 2018/11/15 06:22 UTC NOAA

TAF ULLI 150500Z 1506/1606 21003MPS 5000 BR BKN012 BKN020
TEMPO 1506/1518 3100 BR BKN011 BKN020
BECMG 1516/1518 22004G09MPS
TEMPO 1518/1606 3100 -SHRA BR BKN011 BKN020CB


Example: see airport list